Time;durP1;ratioP1;P1;durP2;ratioP2;P2;SDS_P1;SDS_P2;PMS_P1;PMS_P2;Temp;Humidity;BMP_temperature;BMP_pressure;BME280_temperature;BME280_humidity;BME280_pressure;Samples;Min_cycle;Max_cycle;Signal;HPM_P1;HPM_P2
2022/05/29 00:02:21;;;;;;;1.33;0.30;;;10.70;74.00;;;;;;4966799;28;20050;-83
2022/05/29 00:04:48;;;;;;;0.50;0.20;;;10.80;73.90;;;;;;5014749;28;20045;-82
2022/05/29 00:07:20;;;;;;;4.85;0.43;;;10.80;73.80;;;;;;4999288;28;20092;-83
2022/05/29 00:09:49;;;;;;;0.90;0.30;;;10.90;73.80;;;;;;4983242;28;20495;-82
2022/05/29 00:12:17;;;;;;;1.27;0.30;;;10.90;73.90;;;;;;5014503;28;20513;-82
2022/05/29 00:14:45;;;;;;;0.80;0.20;;;10.90;73.80;;;;;;4981944;28;20049;-83
2022/05/29 00:17:12;;;;;;;0.55;0.20;;;10.90;73.80;;;;;;4982269;28;20053;-82
2022/05/29 00:19:39;;;;;;;1.75;0.20;;;10.90;73.80;;;;;;4998103;28;20045;-81
2022/05/29 00:22:09;;;;;;;0.98;0.25;;;10.90;73.80;;;;;;4982017;28;20107;-83
2022/05/29 00:24:36;;;;;;;1.27;0.30;;;10.90;73.90;;;;;;4998214;28;20049;-82
2022/05/29 00:27:04;;;;;;;1.42;0.30;;;10.90;74.00;;;;;;4998329;28;20111;-83
2022/05/29 00:29:31;;;;;;;1.23;0.30;;;11.00;74.00;;;;;;5014582;28;20046;-82
2022/05/29 00:31:59;;;;;;;2.70;0.55;;;11.00;73.80;;;;;;4982365;28;20049;-82
2022/05/29 00:34:26;;;;;;;2.47;0.30;;;11.00;74.20;;;;;;4983006;28;20540;-82
2022/05/29 00:36:53;;;;;;;1.52;0.30;;;11.00;74.20;;;;;;4982423;28;20454;-83
2022/05/29 00:39:20;;;;;;;0.63;0.20;;;11.00;74.30;;;;;;4998115;28;20042;-81
2022/05/29 00:41:47;;;;;;;0.50;0.25;;;11.00;74.30;;;;;;5014464;28;20114;-82
2022/05/29 00:44:21;;;;;;;1.30;0.20;;;11.10;74.20;;;;;;4982162;28;20037;-82
2022/05/29 00:46:51;;;;;;;0.73;0.15;;;11.10;74.20;;;;;;4998226;28;20046;-82
2022/05/29 00:49:22;;;;;;;1.27;0.20;;;11.20;74.30;;;;;;5014745;28;20063;-82
2022/05/29 00:52:00;;;;;;;2.08;0.35;;;11.20;74.30;;;;;;4998483;28;20138;-82
2022/05/29 00:54:30;;;;;;;1.95;0.20;;;11.20;74.60;;;;;;5007140;28;20056;-82
2022/05/29 00:56:58;;;;;;;3.08;0.30;;;11.00;74.90;;;;;;5014279;28;20041;-82
2022/05/29 00:59:29;;;;;;;2.10;0.40;;;10.90;75.30;;;;;;5007782;28;20660;-82
2022/05/29 01:01:58;;;;;;;1.25;0.30;;;10.80;75.70;;;;;;5014819;28;20092;-82
2022/05/29 01:04:25;;;;;;;1.42;0.20;;;10.70;75.90;;;;;;4998118;28;20052;-82
2022/05/29 01:06:53;;;;;;;1.35;0.20;;;10.60;76.40;;;;;;4997380;28;20096;-83
2022/05/29 01:09:20;;;;;;;2.83;0.40;;;10.60;76.60;;;;;;4984408;28;20053;-82
2022/05/29 01:12:07;;;;;;;0.47;0.30;;;10.60;76.80;;;;;;4963833;28;20416;-82
2022/05/29 01:15:04;;;;;;;2.15;0.28;;;10.60;77.00;;;;;;5014142;28;20086;-84
2022/05/29 01:17:55;;;;;;;0.43;0.20;;;10.60;77.30;;;;;;5000456;28;20046;-83
2022/05/29 01:20:50;;;;;;;0.20;0.10;;;10.50;77.30;;;;;;4997712;28;20069;-83
2022/05/29 01:23:38;;;;;;;1.92;0.30;;;10.50;77.40;;;;;;5013952;28;20069;-83
2022/05/29 01:26:22;;;;;;;1.23;0.30;;;10.50;77.80;;;;;;5011358;28;20049;-82
2022/05/29 01:28:55;;;;;;;1.17;0.30;;;10.50;77.80;;;;;;5000139;28;20108;-82
2022/05/29 01:31:33;;;;;;;2.10;0.40;;;10.60;78.00;;;;;;5016576;28;20060;-82
2022/05/29 01:34:31;;;;;;;0.88;0.30;;;10.60;77.90;;;;;;5034803;28;20223;-83
2022/05/29 01:37:22;;;;;;;0.63;0.25;;;10.60;77.90;;;;;;5008280;28;20105;-82
2022/05/29 01:39:58;;;;;;;3.00;0.70;;;10.60;77.90;;;;;;5017088;28;20072;-82
2022/05/29 01:42:40;;;;;;;3.17;0.45;;;10.60;78.40;;;;;;5005804;28;20116;-83
2022/05/29 01:45:19;;;;;;;1.20;0.40;;;10.60;78.70;;;;;;4999991;28;20069;-82
2022/05/29 01:47:53;;;;;;;0.77;0.30;;;10.50;78.80;;;;;;5017331;28;20470;-83
2022/05/29 01:51:03;;;;;;;2.60;0.30;;;10.50;78.70;;;;;;5001200;28;20065;-82
2022/05/29 01:53:36;;;;;;;1.35;0.30;;;10.50;78.80;;;;;;4922884;29;20589;-82
2022/05/29 01:56:15;;;;;;;1.60;0.40;;;10.50;79.10;;;;;;4938670;29;20090;-83
2022/05/29 01:58:51;;;;;;;2.80;0.50;;;10.50;79.10;;;;;;4985387;28;20050;-83
2022/05/29 02:01:23;;;;;;;2.47;0.73;;;10.50;79.40;;;;;;5017326;28;20491;-82
2022/05/29 02:03:54;;;;;;;3.45;0.40;;;10.50;79.50;;;;;;5017288;28;20038;-82
2022/05/29 02:07:47;;;;;;;2.78;0.68;;;10.50;79.30;;;;;;5016890;28;20057;-82
2022/05/29 02:09:20;;;;;;;2.42;0.40;;;10.50;79.30;;;;;;5006491;28;20049;-83
2022/05/29 02:11:52;;;;;;;2.72;0.80;;;10.60;79.10;;;;;;5011321;28;20493;-83
2022/05/29 02:14:25;;;;;;;1.75;0.70;;;10.60;79.60;;;;;;4999867;28;20147;-84
2022/05/29 02:16:58;;;;;;;1.88;0.50;;;10.60;79.80;;;;;;5016858;28;20107;-83
2022/05/29 02:19:40;;;;;;;2.70;0.70;;;10.60;79.60;;;;;;5017128;28;20037;-82
2022/05/29 02:22:15;;;;;;;1.50;0.63;;;10.60;79.70;;;;;;5016719;28;20049;-82
2022/05/29 02:24:46;;;;;;;2.25;0.43;;;10.60;80.10;;;;;;5006567;28;20336;-82
2022/05/29 02:27:32;;;;;;;3.25;0.80;;;10.60;80.00;;;;;;5016526;28;20137;-82
2022/05/29 02:30:01;;;;;;;3.75;0.63;;;10.60;80.50;;;;;;5003924;28;20124;-82
2022/05/29 02:32:46;;;;;;;4.50;0.60;;;10.50;80.40;;;;;;5000026;28;20080;-82
2022/05/29 02:35:27;;;;;;;2.13;0.70;;;10.50;80.30;;;;;;5015557;28;20049;-83
2022/05/29 02:38:12;;;;;;;4.93;0.50;;;10.60;80.20;;;;;;5033468;28;20139;-82
2022/05/29 02:40:48;;;;;;;2.30;0.57;;;10.60;80.20;;;;;;5000036;28;20277;-83
2022/05/29 02:43:58;;;;;;;1.90;1.00;;;10.60;80.50;;;;;;4999539;28;20053;-83
2022/05/29 02:46:47;;;;;;;1.60;0.50;;;10.60;80.50;;;;;;4957617;28;20057;-83
2022/05/29 02:49:35;;;;;;;2.80;0.40;;;10.50;80.70;;;;;;5016182;28;20060;-82
2022/05/29 02:52:09;;;;;;;1.13;0.50;;;10.50;80.60;;;;;;5003216;28;20041;-82
2022/05/29 02:54:37;;;;;;;0.88;0.40;;;10.50;80.70;;;;;;5016438;28;20037;-82
2022/05/29 02:57:04;;;;;;;2.78;0.30;;;10.40;80.60;;;;;;4984034;28;20071;-83
2022/05/29 02:59:47;;;;;;;1.08;0.40;;;10.50;80.70;;;;;;4983454;28;20093;-81
2022/05/29 03:02:39;;;;;;;1.75;0.60;;;10.50;80.80;;;;;;5019640;28;20414;-83
2022/05/29 03:05:21;;;;;;;2.03;0.70;;;10.40;80.90;;;;;;5015665;28;20053;-82
2022/05/29 03:08:19;;;;;;;7.05;0.90;;;10.40;81.10;;;;;;5015893;28;20463;-83
2022/05/29 03:11:09;;;;;;;2.33;0.40;;;10.40;81.40;;;;;;5007910;28;20163;-83
2022/05/29 03:14:08;;;;;;;1.25;0.50;;;10.40;81.50;;;;;;5016120;28;20050;-83
2022/05/29 03:17:20;;;;;;;1.65;0.47;;;10.40;81.50;;;;;;4995358;28;20049;-83
2022/05/29 03:20:14;;;;;;;1.48;0.50;;;10.40;81.50;;;;;;4965614;28;20111;-82
2022/05/29 03:23:08;;;;;;;0.63;0.20;;;10.40;81.80;;;;;;5019253;28;20489;-82
2022/05/29 03:25:51;;;;;;;0.68;0.30;;;10.40;81.80;;;;;;5009416;28;20041;-82
2022/05/29 03:28:51;;;;;;;0.90;0.38;;;10.40;81.80;;;;;;5003776;28;20045;-81
2022/05/29 03:31:24;;;;;;;1.13;0.40;;;10.40;81.80;;;;;;4970594;28;20091;-82
2022/05/29 03:33:51;;;;;;;1.27;0.43;;;10.40;82.10;;;;;;5015868;28;20076;-78
2022/05/29 03:36:23;;;;;;;0.85;0.30;;;10.30;82.20;;;;;;5033120;28;20099;-79
2022/05/29 03:38:50;;;;;;;5.18;0.47;;;10.40;82.30;;;;;;4996180;28;20053;-79
2022/05/29 03:41:51;;;;;;;4.82;0.60;;;10.40;82.60;;;;;;4997964;28;20045;-79
2022/05/29 03:44:21;;;;;;;2.90;0.50;;;10.30;83.00;;;;;;4958053;28;20514;-80
2022/05/29 03:46:51;;;;;;;2.25;0.57;;;10.30;83.20;;;;;;4998900;28;20087;-80
2022/05/29 03:49:21;;;;;;;1.88;0.50;;;10.30;83.20;;;;;;5014944;28;20053;-80
2022/05/29 03:51:47;;;;;;;3.15;0.60;;;10.40;83.30;;;;;;5032757;28;20073;-79
2022/05/29 03:54:15;;;;;;;3.75;0.70;;;10.40;83.40;;;;;;4998961;28;20056;-79
2022/05/29 03:56:42;;;;;;;1.90;0.50;;;10.40;83.30;;;;;;5014951;28;20414;-79
2022/05/29 03:59:09;;;;;;;1.88;0.70;;;10.40;83.40;;;;;;5014838;28;20471;-80
2022/05/29 04:01:37;;;;;;;4.18;0.73;;;10.50;83.80;;;;;;4996741;28;20472;-80
2022/05/29 04:04:05;;;;;;;2.22;0.80;;;10.40;84.10;;;;;;4982675;28;20041;-82
2022/05/29 04:06:34;;;;;;;3.22;0.50;;;10.50;83.90;;;;;;4998771;28;20392;-83
2022/05/29 04:12:07;;;;;;;5.20;1.25;;;10.50;84.30;;;;;;5014820;28;20104;-82
2022/05/29 04:14:41;;;;;;;1.95;0.70;;;10.50;84.40;;;;;;4998527;28;20107;-83
2022/05/29 04:17:14;;;;;;;3.22;0.70;;;10.50;84.20;;;;;;5013967;28;20647;-83
2022/05/29 04:19:41;;;;;;;2.55;0.43;;;10.60;84.10;;;;;;5014955;28;20088;-84
2022/05/29 04:22:12;;;;;;;4.88;0.52;;;10.70;83.80;;;;;;4982754;28;20040;-83
2022/05/29 04:24:39;;;;;;;1.55;0.70;;;10.70;83.60;;;;;;5014617;28;20041;-84
2022/05/29 04:27:11;;;;;;;4.60;0.60;;;10.80;83.60;;;;;;4982389;28;20879;-82
2022/05/29 04:29:39;;;;;;;3.03;0.70;;;10.80;83.60;;;;;;5014908;28;20059;-84
2022/05/29 04:34:56;;;;;;;1.48;0.40;;;10.70;83.60;;;;;;5012209;28;20099;-80
2022/05/29 04:37:27;;;;;;;3.30;0.55;;;10.70;83.50;;;;;;5014344;28;20057;-80
2022/05/29 04:39:54;;;;;;;2.25;0.93;;;10.70;83.40;;;;;;5014357;28;20049;-80
2022/05/29 04:42:21;;;;;;;2.80;0.50;;;10.70;83.40;;;;;;5014511;28;20048;-80
2022/05/29 04:44:48;;;;;;;1.98;0.50;;;10.70;83.70;;;;;;4997585;28;20443;-79
2022/05/29 04:47:16;;;;;;;1.90;0.50;;;10.70;83.60;;;;;;4997986;28;20048;-80
2022/05/29 04:49:44;;;;;;;1.70;0.70;;;10.60;83.70;;;;;;5014421;28;20046;-79
2022/05/29 04:52:11;;;;;;;2.20;0.40;;;10.60;83.70;;;;;;4998007;28;20057;-79
2022/05/29 04:54:40;;;;;;;4.63;0.70;;;10.60;84.00;;;;;;4995155;28;21109;-80
2022/05/29 04:57:08;;;;;;;1.35;0.40;;;10.60;84.10;;;;;;5018232;28;20091;-80
2022/05/29 04:59:36;;;;;;;1.45;0.30;;;10.50;84.00;;;;;;4998164;28;20042;-80
2022/05/29 05:02:04;;;;;;;1.38;0.43;;;10.50;83.90;;;;;;5017570;28;20046;-80
2022/05/29 05:04:31;;;;;;;1.67;0.43;;;10.50;84.20;;;;;;5001201;28;20046;-80
2022/05/29 05:06:59;;;;;;;1.25;0.32;;;10.40;84.10;;;;;;5001305;28;20046;-79
2022/05/29 05:09:27;;;;;;;1.17;0.32;;;10.40;84.10;;;;;;5001717;28;20046;-80
2022/05/29 05:11:55;;;;;;;1.35;0.40;;;10.50;84.10;;;;;;4985871;28;20056;-80
2022/05/29 05:14:24;;;;;;;1.15;0.30;;;10.60;84.10;;;;;;5035614;28;20049;-80
2022/05/29 05:16:56;;;;;;;1.67;0.77;;;10.60;84.00;;;;;;5017531;28;20056;-80
2022/05/29 05:19:23;;;;;;;1.42;0.40;;;10.70;83.80;;;;;;4985924;28;20045;-80
2022/05/29 05:21:51;;;;;;;1.08;0.38;;;10.80;83.80;;;;;;5001827;28;20065;-81
2022/05/29 05:24:18;;;;;;;1.80;0.50;;;10.80;83.70;;;;;;4991052;28;20037;-80
2022/05/29 05:26:46;;;;;;;1.88;0.40;;;10.90;83.70;;;;;;5002311;28;20112;-81
2022/05/29 05:29:14;;;;;;;2.72;0.47;;;10.90;83.80;;;;;;5000305;28;20045;-81
2022/05/29 05:31:41;;;;;;;0.95;0.40;;;11.00;83.90;;;;;;5000707;28;20058;-80
2022/05/29 05:34:08;;;;;;;0.85;0.45;;;11.00;83.70;;;;;;4989051;28;20720;-81
2022/05/29 05:36:35;;;;;;;2.42;0.63;;;11.00;83.90;;;;;;4989122;28;20041;-80
2022/05/29 05:39:03;;;;;;;0.98;0.38;;;11.00;83.90;;;;;;4998632;28;20064;-79
2022/05/29 05:41:30;;;;;;;2.58;0.70;;;11.00;84.10;;;;;;4999710;28;20042;-80
2022/05/29 05:43:57;;;;;;;3.47;0.70;;;11.00;84.10;;;;;;5017951;28;20395;-79
2022/05/29 05:46:24;;;;;;;3.20;0.88;;;11.10;84.10;;;;;;5017830;28;20034;-81
2022/05/29 05:48:51;;;;;;;3.97;0.57;;;11.10;84.10;;;;;;5001257;28;20053;-80
2022/05/29 05:51:18;;;;;;;2.13;0.50;;;11.10;84.30;;;;;;4985493;28;20057;-80
2022/05/29 05:53:46;;;;;;;3.00;0.68;;;11.00;84.40;;;;;;5001285;28;20057;-80
2022/05/29 05:56:17;;;;;;;2.55;0.60;;;11.00;84.50;;;;;;4992006;28;20037;-80
2022/05/29 05:58:45;;;;;;;2.40;0.57;;;10.90;84.90;;;;;;5000893;28;20084;-79
2022/05/29 06:01:15;;;;;;;1.50;0.50;;;11.00;85.10;;;;;;5017006;28;20050;-80
2022/05/29 06:03:43;;;;;;;3.20;0.50;;;11.00;85.10;;;;;;5000828;28;20041;-80
2022/05/29 06:06:11;;;;;;;2.53;0.70;;;11.00;85.10;;;;;;4997486;28;20130;-79
2022/05/29 06:08:38;;;;;;;2.17;0.50;;;11.00;86.20;;;;;;5000859;28;20049;-79
2022/05/29 06:11:05;;;;;;;2.33;0.50;;;11.00;85.60;;;;;;4986618;28;20054;-80
2022/05/29 06:13:32;;;;;;;1.48;0.40;;;11.10;85.50;;;;;;4982989;28;20048;-79
2022/05/29 06:16:03;;;;;;;1.25;0.38;;;11.20;85.50;;;;;;5016967;28;20051;-80
2022/05/29 06:18:30;;;;;;;1.83;0.50;;;11.20;85.40;;;;;;4996855;28;20107;-78
2022/05/29 06:21:00;;;;;;;2.78;0.57;;;11.30;85.30;;;;;;4983580;28;20402;-79
2022/05/29 06:23:28;;;;;;;1.40;0.30;;;11.40;85.10;;;;;;4990821;28;20041;-80
2022/05/29 06:25:55;;;;;;;1.75;0.60;;;11.50;84.80;;;;;;4983837;28;20057;-79
2022/05/29 06:28:22;;;;;;;2.40;1.05;;;11.70;84.70;;;;;;4999832;28;20510;-80
2022/05/29 06:30:49;;;;;;;0.88;0.30;;;11.70;84.40;;;;;;4999981;28;20495;-80
2022/05/29 06:33:16;;;;;;;2.00;0.30;;;11.80;84.30;;;;;;4996268;28;20056;-79
2022/05/29 06:35:46;;;;;;;1.50;0.40;;;11.80;84.10;;;;;;4995898;28;20045;-79
2022/05/29 06:38:13;;;;;;;1.10;0.30;;;11.80;84.10;;;;;;4966528;28;20500;-80
2022/05/29 06:40:42;;;;;;;1.70;0.38;;;11.80;84.00;;;;;;4992371;28;20127;-81
2022/05/29 06:43:11;;;;;;;1.25;0.30;;;11.90;83.90;;;;;;5000899;28;20495;-82
2022/05/29 06:45:39;;;;;;;1.40;0.32;;;11.90;83.70;;;;;;5000847;28;20033;-84
2022/05/29 06:48:07;;;;;;;1.05;0.30;;;11.90;83.60;;;;;;5017212;28;20053;-83
2022/05/29 06:50:34;;;;;;;0.70;0.28;;;11.90;83.60;;;;;;5000821;28;20107;-85
2022/05/29 06:53:01;;;;;;;1.67;0.45;;;11.90;83.70;;;;;;5017986;28;20083;-85
2022/05/29 06:55:29;;;;;;;1.38;0.30;;;11.90;83.80;;;;;;5017564;28;20049;-83
2022/05/29 06:57:56;;;;;;;0.73;0.30;;;11.90;83.80;;;;;;5018051;28;20053;-84
2022/05/29 07:08:46;;;;;;;0.30;0.20;;;11.40;85.00;;;;;;5016469;28;20045;-84
2022/05/29 07:11:23;;;;;;;1.35;0.30;;;11.30;85.10;;;;;;4999340;28;20057;-84
2022/05/29 07:13:50;;;;;;;0.40;0.20;;;11.40;85.20;;;;;;5014730;28;20392;-83
2022/05/29 07:16:17;;;;;;;1.17;0.35;;;11.40;85.10;;;;;;5000238;28;20049;-82
2022/05/29 07:18:45;;;;;;;1.67;0.50;;;11.50;85.10;;;;;;5016372;28;20049;-82
2022/05/29 07:21:19;;;;;;;2.15;0.60;;;11.60;85.10;;;;;;5017301;28;20037;-79
2022/05/29 07:23:46;;;;;;;2.30;1.23;;;11.50;85.20;;;;;;4998739;28;20042;-80
2022/05/29 07:26:17;;;;;;;2.05;0.60;;;11.50;85.10;;;;;;4980562;28;20607;-80
2022/05/29 07:28:45;;;;;;;1.77;0.77;;;11.60;85.20;;;;;;4999132;28;20041;-79
2022/05/29 07:31:12;;;;;;;1.90;0.50;;;11.70;85.10;;;;;;4999651;28;20045;-80
2022/05/29 07:33:40;;;;;;;3.10;0.60;;;11.80;85.10;;;;;;4996055;28;20133;-79
2022/05/29 07:36:11;;;;;;;1.05;0.57;;;11.90;84.80;;;;;;4998776;28;20087;-79
2022/05/29 07:38:40;;;;;;;1.85;0.35;;;12.00;84.60;;;;;;4996557;28;20042;-78
2022/05/29 07:44:13;;;;;;;0.50;0.30;;;12.10;85.00;;;;;;4993230;28;20052;-80
2022/05/29 07:47:06;;;;;;;;;;;12.20;84.20;;;;;;4985369;28;20060;-85
2022/05/29 07:49:38;;;;;;;0.93;0.20;;;12.30;84.00;;;;;;5013986;28;19928;-84
2022/05/29 07:52:07;;;;;;;2.40;0.50;;;12.30;83.90;;;;;;5000031;28;20049;-85
2022/05/29 07:54:34;;;;;;;3.72;0.50;;;12.20;83.90;;;;;;5000128;28;20103;-85
2022/05/29 07:57:01;;;;;;;1.30;0.35;;;12.10;84.30;;;;;;5000609;28;20046;-85
2022/05/29 07:59:29;;;;;;;1.27;0.28;;;11.80;84.80;;;;;;5000796;28;20050;-86
2022/05/29 08:01:56;;;;;;;0.77;0.30;;;11.80;85.30;;;;;;4984670;28;20494;-86
2022/05/29 08:04:24;;;;;;;3.03;0.50;;;11.70;85.50;;;;;;4986251;28;20056;-86
2022/05/29 08:06:51;;;;;;;1.10;0.43;;;11.60;85.80;;;;;;5003415;28;20057;-86
2022/05/29 08:09:19;;;;;;;3.53;0.43;;;11.60;86.00;;;;;;4986563;28;20169;-79
2022/05/29 08:11:46;;;;;;;0.85;0.30;;;11.70;85.90;;;;;;4991566;28;20569;-78
2022/05/29 08:14:13;;;;;;;2.42;0.50;;;11.80;85.80;;;;;;4997199;28;20046;-78
2022/05/29 08:16:41;;;;;;;1.58;0.52;;;12.00;85.70;;;;;;5015736;28;20041;-79
2022/05/29 08:19:08;;;;;;;2.05;0.60;;;12.10;85.60;;;;;;4983664;28;20095;-79
2022/05/29 08:21:35;;;;;;;1.08;0.35;;;12.30;85.40;;;;;;5015702;28;20483;-79
2022/05/29 08:32:44;;;;;;;0.90;0.40;;;12.60;84.80;;;;;;5014826;28;20495;-78
2022/05/29 08:35:11;;;;;;;0.30;0.20;;;12.70;84.60;;;;;;5014362;28;20261;-78
2022/05/29 08:37:39;;;;;;;1.33;0.30;;;12.80;84.50;;;;;;4996532;28;20050;-78
2022/05/29 08:40:07;;;;;;;0.80;0.30;;;13.00;84.30;;;;;;4993312;28;20049;-80
2022/05/29 08:42:34;;;;;;;1.30;0.40;;;13.20;83.80;;;;;;5014549;28;20050;-80
2022/05/29 08:45:03;;;;;;;0.68;0.40;;;13.20;83.50;;;;;;4982747;28;20053;-80
2022/05/29 08:47:33;;;;;;;0.73;0.30;;;13.30;83.80;;;;;;4983205;28;20046;-81
2022/05/29 08:50:08;;;;;;;2.53;0.57;;;13.40;83.60;;;;;;5014885;28;20080;-79
2022/05/29 08:53:04;;;;;;;2.67;0.40;;;13.30;83.40;;;;;;4983950;28;20119;-80
2022/05/29 08:55:36;;;;;;;2.30;0.40;;;13.30;83.40;;;;;;5001797;28;20057;-79
2022/05/29 08:58:43;;;;;;;0.82;0.30;;;13.20;83.50;;;;;;5015151;28;20038;-79
2022/05/29 09:01:26;;;;;;;1.33;0.40;;;13.30;83.50;;;;;;4990584;28;20108;-79
2022/05/29 09:03:58;;;;;;;1.70;0.28;;;13.40;83.20;;;;;;4995372;28;20455;-81
2022/05/29 09:06:49;;;;;;;1.60;0.50;;;13.50;83.10;;;;;;4989212;28;20046;-81
2022/05/29 09:09:40;;;;;;;2.78;0.77;;;13.60;82.60;;;;;;4987189;28;20041;-81
2022/05/29 09:12:15;;;;;;;4.53;0.77;;;13.70;82.60;;;;;;5014389;28;20049;-82
2022/05/29 09:14:50;;;;;;;1.30;0.45;;;13.60;82.30;;;;;;5014682;28;20837;-80
2022/05/29 09:17:39;;;;;;;2.63;0.43;;;13.60;82.20;;;;;;5014765;28;20079;-81
2022/05/29 09:20:28;;;;;;;1.55;0.35;;;13.60;82.30;;;;;;5014677;28;20096;-82
2022/05/29 09:22:57;;;;;;;1.40;0.40;;;13.60;82.40;;;;;;5003898;28;20041;-82
2022/05/29 09:25:35;;;;;;;1.85;0.30;;;13.50;82.40;;;;;;4998420;28;20073;-81
2022/05/29 09:28:24;;;;;;;1.58;0.40;;;13.40;82.50;;;;;;5014278;28;20049;-81
2022/05/29 09:31:03;;;;;;;1.85;0.30;;;13.50;82.50;;;;;;5015104;28;20049;-84
2022/05/29 09:33:30;;;;;;;1.83;0.30;;;13.40;82.30;;;;;;5032226;28;20116;-78
2022/05/29 09:36:25;;;;;;;2.75;0.40;;;13.40;82.30;;;;;;5014578;28;20045;-83
2022/05/29 09:38:58;;;;;;;1.75;0.30;;;13.40;82.20;;;;;;5014459;28;20574;-83
2022/05/29 09:41:35;;;;;;;0.60;0.20;;;13.40;82.10;;;;;;5014282;28;20423;-81
2022/05/29 09:44:05;;;;;;;1.48;0.38;;;13.50;81.90;;;;;;5013873;28;20116;-82
2022/05/29 09:46:38;;;;;;;0.60;0.20;;;13.50;81.80;;;;;;4998115;28;20033;-81
2022/05/29 09:52:21;;;;;;;1.05;0.20;;;13.80;81.30;;;;;;5022982;28;20092;-81
2022/05/29 09:55:21;;;;;;;2.08;0.30;;;14.00;81.00;;;;;;5000438;28;20415;-81
2022/05/29 09:58:26;;;;;;;2.33;0.40;;;14.20;80.70;;;;;;4993603;28;20081;-80
2022/05/29 10:01:10;;;;;;;1.73;0.22;;;14.40;80.30;;;;;;4994425;28;20068;-82
2022/05/29 10:04:37;;;;;;;2.05;0.30;;;14.60;80.00;;;;;;4946869;28;20430;-80
2022/05/29 10:08:14;;;;;;;3.03;0.30;;;14.50;79.70;;;;;;4924274;28;20055;-78
2022/05/29 10:10:41;;;;;;;1.98;0.40;;;14.40;79.20;;;;;;4927806;28;20054;-80
2022/05/29 10:13:09;;;;;;;2.78;0.65;;;14.40;79.20;;;;;;4939070;29;20498;-80
2022/05/29 10:15:41;;;;;;;3.88;0.60;;;14.40;78.70;;;;;;4924660;28;20065;-80
2022/05/29 10:18:40;;;;;;;4.78;0.30;;;14.50;78.50;;;;;;4941782;28;20541;-80
2022/05/29 10:21:22;;;;;;;6.15;0.50;;;14.60;78.40;;;;;;4938457;29;20058;-81
2022/05/29 10:24:09;;;;;;;4.35;0.77;;;14.70;78.30;;;;;;4954176;28;20051;-82
2022/05/29 10:26:36;;;;;;;3.08;0.68;;;14.80;77.90;;;;;;4945241;28;20398;-82
2022/05/29 10:29:29;;;;;;;3.35;0.60;;;14.60;77.80;;;;;;4987472;28;20060;-79
2022/05/29 10:31:58;;;;;;;1.90;0.50;;;14.60;78.00;;;;;;5017180;28;20168;-78
2022/05/29 10:34:31;;;;;;;2.25;0.30;;;14.40;77.80;;;;;;5016900;28;20045;-79
2022/05/29 10:37:01;;;;;;;2.42;0.30;;;14.20;78.10;;;;;;5016616;28;20049;-79
2022/05/29 10:39:41;;;;;;;2.10;0.73;;;14.00;78.30;;;;;;5004931;28;20073;-79
2022/05/29 10:42:09;;;;;;;4.13;0.88;;;13.80;78.60;;;;;;4966911;28;20037;-78
2022/05/29 10:44:46;;;;;;;1.10;0.40;;;13.60;79.00;;;;;;5000227;28;20041;-83
2022/05/29 10:47:25;;;;;;;1.50;0.20;;;13.60;79.50;;;;;;5016338;28;20510;-81
2022/05/29 10:50:19;;;;;;;1.77;0.30;;;13.50;79.50;;;;;;5031046;28;20041;-80
2022/05/29 10:53:25;;;;;;;2.72;0.30;;;13.50;79.40;;;;;;5010503;28;20073;-84
2022/05/29 10:56:06;;;;;;;1.88;0.25;;;13.50;79.30;;;;;;4990980;28;20141;-82
2022/05/29 10:58:42;;;;;;;1.25;0.50;;;13.60;79.00;;;;;;5016277;28;20041;-83
2022/05/29 11:04:14;;;;;;;1.00;0.10;;;14.00;78.60;;;;;;5022203;28;20037;-81
2022/05/29 11:07:10;;;;;;;3.55;0.38;;;14.30;78.00;;;;;;5016170;28;20434;-83
2022/05/29 11:10:03;;;;;;;3.28;0.43;;;14.60;77.90;;;;;;5016014;28;20046;-82
2022/05/29 11:13:06;;;;;;;2.88;0.30;;;14.90;76.70;;;;;;5008132;28;20046;-85
2022/05/29 11:15:48;;;;;;;2.75;0.30;;;15.20;75.60;;;;;;5000063;28;20069;-82
2022/05/29 11:18:37;;;;;;;1.85;0.50;;;15.30;74.90;;;;;;5016271;28;20422;-82
2022/05/29 11:21:27;;;;;;;2.67;0.20;;;15.30;74.40;;;;;;5008893;28;20140;-82
2022/05/29 11:24:22;;;;;;;3.17;0.20;;;15.30;74.40;;;;;;5012957;28;20509;-83
2022/05/29 11:27:41;;;;;;;2.55;0.40;;;15.50;74.40;;;;;;5008570;28;20392;-83
2022/05/29 11:30:40;;;;;;;4.35;0.40;;;15.60;73.10;;;;;;4988098;28;20041;-82
2022/05/29 11:33:29;;;;;;;2.25;0.40;;;15.70;73.00;;;;;;5033334;28;20049;-81
2022/05/29 11:36:02;;;;;;;4.07;0.45;;;15.70;72.00;;;;;;5015613;28;20049;-79
2022/05/29 11:38:42;;;;;;;2.80;0.40;;;15.70;72.30;;;;;;5015963;28;20041;-79
2022/05/29 11:41:17;;;;;;;2.72;0.43;;;15.80;72.10;;;;;;4997516;28;20069;-82
2022/05/29 11:44:12;;;;;;;1.90;0.20;;;15.80;71.70;;;;;;5033164;28;20045;-84
2022/05/29 11:52:54;;;;;;;3.78;0.35;;;15.70;71.20;;;;;;4996229;28;20053;-85
2022/05/29 11:55:49;;;;;;;3.13;0.25;;;15.90;70.80;;;;;;5015487;28;20097;-83
2022/05/29 11:58:27;;;;;;;2.88;0.30;;;16.00;70.00;;;;;;4996153;28;20049;-86
2022/05/29 12:01:02;;;;;;;1.92;0.20;;;16.20;69.50;;;;;;5015184;28;20041;-85
2022/05/29 12:03:46;;;;;;;2.15;0.30;;;16.40;69.10;;;;;;5015570;28;20049;-85
2022/05/29 12:06:22;;;;;;;1.65;0.30;;;16.70;68.20;;;;;;4998219;28;20049;-82
2022/05/29 12:09:09;;;;;;;0.93;0.20;;;16.80;67.70;;;;;;5015374;28;20034;-87
2022/05/29 12:11:47;;;;;;;1.65;0.35;;;17.00;66.60;;;;;;4968181;28;20056;-80
2022/05/29 12:14:43;;;;;;;2.05;0.35;;;17.00;66.20;;;;;;5009595;28;20075;-81
2022/05/29 12:17:19;;;;;;;1.15;0.30;;;17.10;66.30;;;;;;4983565;28;20045;-79
2022/05/29 12:20:03;;;;;;;1.63;0.20;;;17.10;66.50;;;;;;5015560;28;20054;-84
2022/05/29 12:22:52;;;;;;;2.95;0.40;;;17.40;66.30;;;;;;5015156;28;20053;-85
2022/05/29 12:25:33;;;;;;;1.50;0.55;;;17.60;65.80;;;;;;5015517;28;20072;-84
2022/05/29 12:28:11;;;;;;;3.50;0.30;;;17.50;64.20;;;;;;5016814;28;20038;-87
2022/05/29 12:30:46;;;;;;;1.48;0.30;;;17.50;65.00;;;;;;4999255;28;20041;-86
2022/05/29 12:33:25;;;;;;;2.45;0.30;;;17.70;64.80;;;;;;5016718;28;20050;-86
2022/05/29 12:36:19;;;;;;;0.75;0.10;;;17.90;64.00;;;;;;5014897;28;20137;-84
2022/05/29 12:39:04;;;;;;;0.98;0.20;;;18.00;63.60;;;;;;5004628;28;20144;-84
2022/05/29 12:41:50;;;;;;;2.05;0.20;;;17.70;63.50;;;;;;5001830;28;20041;-85
2022/05/29 12:44:26;;;;;;;4.43;0.25;;;17.40;63.80;;;;;;5033042;28;20076;-82
2022/05/29 12:47:04;;;;;;;1.05;0.20;;;17.10;64.10;;;;;;5019001;28;20073;-79
2022/05/29 12:49:38;;;;;;;1.55;0.20;;;16.80;63.80;;;;;;5014937;28;20045;-81
2022/05/29 12:52:32;;;;;;;1.00;0.22;;;16.60;63.60;;;;;;5032897;28;20495;-79
2022/05/29 12:55:50;;;;;;;1.35;0.20;;;16.40;63.50;;;;;;5023208;28;20396;-80
2022/05/29 12:58:20;;;;;;;2.53;0.20;;;16.40;64.10;;;;;;4971221;28;20046;-81
2022/05/29 13:01:28;;;;;;;1.48;0.10;;;16.40;63.70;;;;;;5024417;28;20880;-82
2022/05/29 13:04:33;;;;;;;1.55;0.30;;;16.50;63.40;;;;;;4995131;28;20092;-81
2022/05/29 13:07:20;;;;;;;1.48;0.10;;;16.60;62.50;;;;;;5013789;28;20073;-81
2022/05/29 13:10:25;;;;;;;1.25;0.17;;;16.90;62.60;;;;;;5013990;28;20077;-81
2022/05/29 13:13:06;;;;;;;1.20;0.13;;;17.50;62.20;;;;;;4990838;28;20054;-81
2022/05/29 13:15:36;;;;;;;1.52;0.20;;;18.50;59.20;;;;;;5014421;28;20049;-81
2022/05/29 13:18:09;;;;;;;2.47;0.10;;;18.10;59.70;;;;;;4998783;28;20044;-81
2022/05/29 13:21:10;;;;;;;1.42;0.30;;;17.70;60.70;;;;;;5015133;28;20042;-81
2022/05/29 13:23:41;;;;;;;0.45;0.20;;;17.40;60.20;;;;;;5001733;28;20858;-80
2022/05/29 13:26:11;;;;;;;1.87;0.27;;;17.10;60.80;;;;;;5018177;28;20406;-80
2022/05/29 13:28:41;;;;;;;0.68;0.10;;;16.80;61.00;;;;;;5001788;28;20057;-81
2022/05/29 13:31:18;;;;;;;1.05;0.17;;;16.80;61.60;;;;;;5017981;28;20454;-80
2022/05/29 13:33:47;;;;;;;1.23;0.20;;;16.80;61.40;;;;;;5002274;28;20137;-80
2022/05/29 13:36:39;;;;;;;0.60;0.10;;;16.90;61.60;;;;;;5017942;28;20053;-81
2022/05/29 13:39:24;;;;;;;0.98;0.20;;;17.10;60.90;;;;;;5007330;28;20111;-80
2022/05/29 13:41:59;;;;;;;1.85;0.20;;;17.20;60.30;;;;;;5004892;28;20045;-81
2022/05/29 13:44:36;;;;;;;0.55;0.10;;;17.40;60.20;;;;;;5001787;28;20048;-79
2022/05/29 13:47:25;;;;;;;1.45;0.13;;;17.70;59.30;;;;;;4992257;28;20045;-89
2022/05/29 13:50:03;;;;;;;1.08;0.20;;;17.90;58.90;;;;;;5003328;28;20503;-95
2022/05/29 13:52:32;;;;;;;1.60;0.20;;;17.80;58.70;;;;;;5019119;28;20045;-85
2022/05/29 13:55:25;;;;;;;2.13;0.20;;;17.60;59.00;;;;;;5002201;28;20100;-93
2022/05/29 14:04:03;;;;;;;0.93;0.10;;;17.20;60.00;;;;;;5018237;28;20045;-89
2022/05/29 14:07:14;;;;;;;0.40;0.10;;;17.10;60.40;;;;;;5021990;28;20515;-91
2022/05/29 14:10:25;;;;;;;1.65;0.15;;;16.90;60.70;;;;;;5018922;28;20099;-93
2022/05/29 14:13:26;;;;;;;2.05;0.20;;;16.80;60.90;;;;;;4999279;28;20053;-89
2022/05/29 14:16:11;;;;;;;2.85;0.40;;;16.60;60.80;;;;;;4978770;28;20104;-90
2022/05/29 14:19:10;;;;;;;1.20;0.10;;;16.40;61.10;;;;;;5002579;28;20561;-92
2022/05/29 14:22:16;;;;;;;0.88;0.35;;;16.20;60.90;;;;;;4931747;29;20066;-87
2022/05/29 14:25:15;;;;;;;2.15;0.30;;;16.10;61.00;;;;;;4993847;28;20486;-83